createdAt,value
2018-04-13T00:01:12.918Z,11.03
2018-04-13T00:03:39.359Z,10.30
2018-04-13T00:06:05.761Z,10.07
2018-04-13T00:08:32.194Z,11.00
2018-04-13T00:10:58.590Z,9.60
2018-04-13T00:13:25.825Z,9.07
2018-04-13T00:15:53.022Z,9.10
2018-04-13T00:18:19.502Z,9.13
2018-04-13T00:20:45.952Z,10.87
2018-04-13T00:23:13.112Z,9.23
2018-04-13T00:25:39.526Z,9.13
2018-04-13T00:28:05.908Z,10.53
2018-04-13T00:30:32.354Z,9.50
2018-04-13T00:32:58.814Z,9.90
2018-04-13T00:35:26.707Z,9.10
2018-04-13T00:37:53.880Z,8.77
2018-04-13T00:40:20.274Z,8.70
2018-04-13T00:42:46.702Z,9.10
2018-04-13T00:45:13.132Z,10.20
2018-04-13T00:47:39.509Z,8.70
2018-04-13T00:50:05.923Z,9.40
2018-04-13T00:52:32.428Z,9.30
2018-04-13T00:54:58.810Z,10.90
2018-04-13T00:57:25.208Z,9.90
2018-04-13T00:59:52.407Z,9.80
2018-04-13T01:02:18.851Z,10.27
2018-04-13T01:04:45.281Z,8.90
2018-04-13T01:07:11.685Z,9.33
2018-04-13T01:09:38.117Z,9.57
2018-04-13T01:12:04.512Z,9.60
2018-04-13T01:14:30.995Z,9.80
2018-04-13T01:16:57.432Z,9.13
2018-04-13T01:19:23.910Z,10.00
2018-04-13T01:21:51.137Z,10.10
2018-04-13T01:24:17.512Z,10.50
2018-04-13T01:26:44.743Z,9.80
2018-04-13T01:29:12.643Z,6.80
2018-04-13T01:31:39.767Z,8.00
2018-04-13T01:34:06.184Z,7.17
2018-04-13T01:36:32.608Z,7.10
2018-04-13T01:38:58.995Z,7.33
2018-04-13T01:41:25.381Z,7.50
2018-04-13T01:43:51.821Z,6.70
2018-04-13T01:46:18.235Z,6.83
2018-04-13T01:48:44.626Z,8.20
2018-04-13T01:51:11.124Z,7.83
2018-04-13T01:53:37.522Z,7.70
2018-04-13T01:56:03.979Z,8.80
2018-04-13T01:58:30.487Z,8.33
2018-04-13T02:00:56.873Z,8.37
2018-04-13T02:03:23.297Z,8.57
2018-04-13T02:05:49.779Z,8.67
2018-04-13T02:08:16.194Z,8.20
2018-04-13T02:10:42.605Z,8.70
2018-04-13T02:13:09.793Z,9.13
2018-04-13T02:15:36.181Z,8.70
2018-04-13T02:18:02.815Z,9.57
2018-04-13T02:20:29.266Z,8.90
2018-04-13T02:22:56.434Z,9.40
2018-04-13T02:25:23.572Z,8.27
2018-04-13T02:27:49.996Z,9.57
2018-04-13T02:30:16.404Z,9.43
2018-04-13T02:32:42.806Z,9.97
2018-04-13T02:35:09.276Z,9.93
2018-04-13T02:37:35.672Z,8.80
2018-04-13T02:40:02.116Z,9.20
2018-04-13T02:42:28.573Z,9.97
2018-04-13T02:44:55.009Z,9.50
2018-04-13T02:47:21.404Z,9.03
2018-04-13T02:49:47.879Z,10.30
2018-04-13T02:52:14.315Z,9.53
2018-04-13T02:54:40.715Z,7.80
2018-04-13T02:57:07.138Z,9.77
2018-04-13T02:59:33.544Z,9.03
2018-04-13T03:01:59.978Z,8.03
2018-04-13T03:04:26.507Z,8.60
2018-04-13T03:06:53.011Z,8.93
2018-04-13T03:09:19.401Z,9.50
2018-04-13T03:11:45.849Z,8.90
2018-04-13T03:14:13.031Z,8.10
2018-04-13T03:16:39.457Z,8.83
2018-04-13T03:19:05.869Z,9.60
2018-04-13T03:21:32.265Z,9.50
2018-04-13T03:23:58.652Z,9.90
2018-04-13T03:26:25.100Z,10.60
2018-04-13T03:28:52.270Z,9.80
2018-04-13T03:31:19.384Z,9.23
2018-04-13T03:33:45.808Z,10.40
2018-04-13T03:36:12.225Z,9.67
2018-04-13T03:38:38.621Z,9.07
2018-04-13T03:41:05.107Z,9.43
2018-04-13T03:43:34.533Z,10.00
2018-04-13T03:46:01.782Z,9.23
2018-04-13T03:48:28.960Z,10.60
2018-04-13T03:50:55.397Z,10.70
2018-04-13T03:53:21.874Z,10.40
2018-04-13T03:55:48.405Z,9.80
2018-04-13T03:58:14.866Z,10.50
2018-04-13T04:00:42.027Z,11.13
2018-04-13T04:03:08.588Z,9.87
2018-04-13T04:05:35.054Z,9.33
2018-04-13T04:08:01.477Z,10.60
2018-04-13T04:10:27.934Z,12.10
2018-04-13T04:12:54.382Z,9.70
2018-04-13T04:15:20.813Z,13.00
2018-04-13T04:17:47.232Z,10.03
2018-04-13T04:20:25.940Z,10.93
2018-04-13T04:23:04.805Z,11.63
2018-04-13T04:25:44.072Z,10.33
2018-04-13T04:28:10.557Z,10.63
2018-04-13T04:30:37.709Z,10.20
2018-04-13T04:33:04.100Z,11.47
2018-04-13T04:35:30.528Z,11.13
2018-04-13T04:37:56.948Z,11.47
2018-04-13T04:40:23.437Z,10.70
2018-04-13T04:42:49.866Z,11.60
2018-04-13T04:45:16.306Z,10.67
2018-04-13T04:47:42.705Z,10.80
2018-04-13T04:50:09.142Z,9.20
2018-04-13T04:52:35.550Z,10.30
2018-04-13T04:55:01.947Z,10.87
2018-04-13T04:57:28.482Z,9.80
2018-04-13T04:59:55.658Z,10.27
2018-04-13T05:02:22.164Z,9.93
2018-04-13T05:04:49.469Z,9.50
2018-04-13T05:07:15.864Z,10.50
2018-04-13T05:09:43.021Z,9.83
2018-04-13T05:12:11.773Z,9.00
2018-04-13T05:14:38.237Z,9.37
2018-04-13T05:17:05.373Z,9.40
2018-04-13T05:19:31.812Z,8.73
2018-04-13T05:21:58.195Z,8.60
2018-04-13T05:24:24.617Z,10.57
2018-04-13T05:26:51.040Z,9.40
2018-04-13T05:29:17.488Z,9.57
2018-04-13T05:31:43.907Z,9.70
2018-04-13T05:34:10.504Z,9.20
2018-04-13T05:36:37.661Z,9.63
2018-04-13T05:39:04.836Z,10.10
2018-04-13T05:41:31.993Z,11.10
2018-04-13T05:43:58.373Z,10.00
2018-04-13T05:46:24.772Z,10.70
2018-04-13T05:48:51.198Z,9.63
2018-04-13T05:51:17.588Z,9.80
2018-04-13T05:53:44.730Z,10.60
2018-04-13T05:56:11.153Z,12.03
2018-04-13T05:58:37.553Z,11.60
2018-04-13T06:01:03.931Z,11.60
2018-04-13T06:03:30.382Z,11.43
2018-04-13T06:05:57.552Z,12.50
2018-04-13T06:08:24.010Z,12.03
2018-04-13T06:10:50.433Z,10.77
2018-04-13T06:13:16.854Z,11.47
2018-04-13T06:15:43.263Z,11.30
2018-04-13T06:18:10.452Z,10.63
2018-04-13T06:20:37.006Z,12.37
2018-04-13T06:23:04.441Z,13.30
2018-04-13T06:25:30.855Z,11.40
2018-04-13T06:27:57.258Z,13.40
2018-04-13T06:30:23.654Z,13.10
2018-04-13T06:33:00.075Z,14.40
2018-04-13T06:35:27.298Z,13.13
2018-04-13T06:37:53.694Z,15.60
2018-04-13T06:40:20.142Z,16.27
2018-04-13T06:42:46.569Z,16.70
2018-04-13T06:45:13.025Z,17.60
2018-04-13T06:47:39.456Z,17.67
2018-04-13T06:50:05.845Z,16.90
2018-04-13T06:52:32.333Z,16.27
2018-04-13T06:54:58.773Z,18.43
2018-04-13T06:57:25.177Z,18.10
2018-04-13T06:59:51.598Z,19.33
2018-04-13T07:02:18.074Z,19.13
2018-04-13T07:04:45.233Z,19.90
2018-04-13T07:07:12.452Z,20.00
2018-04-13T07:09:38.876Z,19.90
2018-04-13T07:12:05.306Z,21.53
2018-04-13T07:14:31.726Z,19.03
2018-04-13T07:16:58.160Z,21.00
2018-04-13T07:19:24.541Z,23.47
2018-04-13T07:21:51.677Z,24.10
2018-04-13T07:24:18.116Z,23.13
2018-04-13T07:26:44.560Z,24.87
2018-04-13T07:29:11.007Z,19.93
2018-04-13T07:31:37.442Z,19.00
2018-04-13T07:34:03.946Z,22.70
2018-04-13T07:36:30.332Z,21.23
2018-04-13T07:38:56.796Z,23.43
2018-04-13T07:41:23.202Z,24.40
2018-04-13T07:43:49.593Z,23.10
2018-04-13T07:46:17.044Z,23.53
2018-04-13T07:48:43.822Z,20.23
2018-04-13T07:51:09.817Z,25.67
2018-04-13T07:53:36.058Z,24.63
2018-04-13T07:56:03.191Z,26.83
2018-04-13T07:58:30.315Z,29.90
2018-04-13T08:00:56.746Z,32.20
2018-04-13T08:03:23.504Z,30.70
2018-04-13T08:05:49.583Z,29.10
2018-04-13T08:08:16.059Z,25.40
2018-04-13T08:10:42.456Z,27.97
2018-04-13T08:13:08.895Z,29.07
2018-04-13T08:15:35.371Z,28.10
2018-04-13T08:18:02.711Z,30.63
2018-04-13T08:20:29.180Z,32.30
2018-04-13T08:22:55.598Z,37.40
2018-04-13T08:25:22.741Z,37.93
2018-04-13T08:27:49.147Z,39.67
2018-04-13T08:30:15.634Z,42.97
2018-04-13T08:32:42.066Z,47.37
2018-04-13T08:35:08.475Z,43.47
2018-04-13T08:37:35.714Z,45.00
2018-04-13T08:40:02.149Z,44.07
2018-04-13T08:42:28.593Z,49.60
2018-04-13T08:44:55.114Z,48.70
2018-04-13T08:47:21.518Z,47.63
2018-04-13T08:49:47.988Z,50.17
2018-04-13T08:52:15.161Z,51.33
2018-04-13T08:54:42.296Z,51.10
2018-04-13T08:57:09.475Z,54.10
2018-04-13T08:59:35.899Z,52.20
2018-04-13T09:02:02.362Z,48.13
2018-04-13T09:04:28.790Z,51.57
2018-04-13T09:06:55.191Z,52.33
2018-04-13T09:09:22.329Z,44.57
2018-04-13T09:11:49.497Z,44.67
2018-04-13T09:14:16.101Z,43.30
2018-04-13T09:16:43.279Z,41.30
2018-04-13T09:19:10.439Z,38.80
2018-04-13T09:21:36.908Z,32.97
2018-04-13T09:24:03.300Z,29.60
2018-04-13T09:26:30.442Z,26.80
2018-04-13T09:28:57.770Z,1.73
2018-04-13T09:31:24.309Z,1.80
2018-04-13T09:33:50.702Z,1.20
2018-04-13T09:36:17.127Z,0.70
2018-04-13T09:38:43.500Z,0.70
2018-04-13T09:41:09.907Z,0.70
2018-04-13T09:43:36.369Z,0.87
2018-04-13T09:46:02.810Z,0.67
2018-04-13T09:48:29.952Z,0.70
2018-04-13T09:50:57.207Z,0.60
2018-04-13T09:53:23.659Z,0.70
2018-04-13T09:55:50.044Z,0.60
2018-04-13T09:58:16.503Z,0.77
2018-04-13T10:00:42.938Z,0.70
2018-04-13T10:03:15.452Z,0.70
2018-04-13T10:05:41.883Z,0.70
2018-04-13T10:08:08.429Z,0.70
2018-04-13T10:10:35.554Z,0.70
2018-04-13T10:13:02.742Z,0.60
2018-04-13T10:15:29.465Z,0.60
2018-04-13T10:17:55.973Z,3.27
2018-04-13T10:20:23.138Z,0.70
2018-04-13T10:22:50.285Z,0.60
2018-04-13T10:25:17.433Z,1.40
2018-04-13T10:27:44.617Z,0.60
2018-04-13T10:30:11.030Z,0.70
2018-04-13T10:32:37.523Z,0.63
2018-04-13T10:35:03.983Z,0.70
2018-04-13T10:37:31.209Z,1.00
2018-04-13T10:39:57.612Z,1.47
2018-04-13T10:42:24.038Z,0.60
2018-04-13T10:44:50.438Z,0.70
2018-04-13T10:47:16.838Z,0.70
2018-04-13T10:49:43.257Z,1.87
2018-04-13T10:52:09.647Z,0.70
2018-04-13T10:54:36.057Z,0.70
2018-04-13T10:57:03.271Z,1.63
2018-04-13T10:59:29.711Z,0.60
2018-04-13T11:01:56.149Z,0.70
2018-04-13T11:04:22.609Z,0.70
2018-04-13T11:06:49.758Z,0.70
2018-04-13T11:09:17.628Z,1.27
2018-04-13T11:11:44.856Z,0.73
2018-04-13T11:14:11.314Z,1.03
2018-04-13T11:16:37.728Z,0.80
2018-04-13T11:19:04.177Z,0.67
2018-04-13T11:21:31.349Z,0.97
2018-04-13T11:23:57.813Z,26.03
2018-04-13T11:26:24.275Z,0.70
2018-04-13T11:28:50.679Z,0.70
2018-04-13T11:31:17.109Z,0.70
2018-04-13T11:33:43.565Z,0.70
2018-04-13T11:36:10.012Z,1.00
2018-04-13T11:38:36.421Z,0.70
2018-04-13T11:41:02.851Z,1.43
2018-04-13T11:43:29.535Z,0.70
2018-04-13T11:45:56.675Z,0.80
2018-04-13T11:48:23.917Z,0.70
2018-04-13T11:50:50.318Z,0.90
2018-04-13T11:53:16.742Z,0.70
2018-04-13T11:55:43.227Z,1.57
2018-04-13T11:58:10.361Z,1.63
2018-04-13T12:00:36.801Z,0.70
2018-04-13T12:03:03.981Z,0.73
2018-04-13T12:05:30.389Z,0.60
2018-04-13T12:07:57.529Z,0.60
2018-04-13T12:10:25.095Z,0.70
2018-04-13T12:12:52.260Z,0.70
2018-04-13T12:15:18.697Z,0.70
2018-04-13T12:17:45.885Z,0.80
2018-04-13T12:20:12.330Z,0.60
2018-04-13T12:22:38.727Z,0.80
2018-04-13T12:25:05.176Z,0.70
2018-04-13T12:27:31.619Z,0.60
2018-04-13T12:29:58.056Z,0.70
2018-04-13T12:32:24.540Z,0.80
2018-04-13T12:34:50.997Z,0.70
2018-04-13T12:37:17.417Z,0.70
2018-04-13T12:39:44.645Z,1.23
2018-04-13T12:42:11.046Z,0.80
2018-04-13T12:44:37.468Z,2.20
2018-04-13T12:47:03.905Z,0.70
2018-04-13T12:49:30.310Z,0.80
2018-04-13T12:51:56.714Z,0.90
2018-04-13T12:54:23.962Z,1.83
2018-04-13T12:56:50.360Z,0.70
2018-04-13T12:59:16.756Z,1.00
2018-04-13T13:01:43.968Z,0.80
2018-04-13T13:04:11.482Z,0.80
2018-04-13T13:06:37.946Z,0.67
2018-04-13T13:09:05.273Z,0.90
2018-04-13T13:11:31.681Z,0.77
2018-04-13T13:13:58.093Z,0.70
2018-04-13T13:16:25.273Z,0.70
2018-04-13T13:18:51.714Z,1.33
2018-04-13T13:21:18.173Z,0.70
2018-04-13T13:23:44.634Z,0.70
2018-04-13T13:26:11.872Z,2.70
2018-04-13T13:28:38.292Z,0.80
2018-04-13T13:31:04.723Z,1.43
2018-04-13T13:33:31.175Z,0.67
2018-04-13T13:35:57.730Z,1.53
2018-04-13T13:38:25.007Z,1.07
2018-04-13T13:40:51.426Z,0.67
2018-04-13T13:43:18.597Z,0.63
2018-04-13T13:45:45.122Z,0.70
2018-04-13T13:48:11.566Z,0.70
2018-04-13T13:50:38.700Z,0.70
2018-04-13T13:53:05.225Z,1.10
2018-04-13T13:55:32.386Z,0.73
2018-04-13T13:57:58.788Z,1.30
2018-04-13T14:00:25.568Z,0.70
2018-04-13T14:02:52.058Z,0.60
2018-04-13T14:05:18.565Z,0.70
2018-04-13T14:07:45.143Z,0.70
2018-04-13T14:10:11.533Z,0.70
2018-04-13T14:12:38.545Z,0.70
2018-04-13T14:15:05.821Z,0.70
2018-04-13T14:17:32.221Z,1.47
2018-04-13T14:19:59.379Z,0.70
2018-04-13T14:22:25.905Z,0.70
2018-04-13T14:24:53.077Z,0.60
2018-04-13T14:27:19.510Z,0.70
2018-04-13T14:29:45.980Z,0.70
2018-04-13T14:32:12.428Z,0.60
2018-04-13T14:34:38.870Z,0.60
2018-04-13T14:37:05.310Z,0.60
2018-04-13T14:39:31.725Z,0.63
2018-04-13T14:41:58.241Z,0.70
2018-04-13T14:44:24.678Z,0.70
2018-04-13T14:46:51.094Z,1.13
2018-04-13T14:49:18.352Z,0.80
2018-04-13T14:51:44.807Z,0.70
2018-04-13T14:54:11.233Z,0.70
2018-04-13T14:56:37.652Z,0.60
2018-04-13T14:59:04.091Z,0.70
2018-04-13T15:01:30.559Z,0.60
2018-04-13T15:03:57.075Z,0.70
2018-04-13T15:06:23.512Z,0.80
2018-04-13T15:08:49.941Z,1.27
2018-04-13T15:11:16.399Z,0.73
2018-04-13T15:13:43.787Z,0.60
2018-04-13T15:16:10.228Z,1.00
2018-04-13T15:18:36.689Z,0.60
2018-04-13T15:21:03.175Z,0.80
2018-04-13T15:23:29.599Z,0.70
2018-04-13T15:25:56.791Z,1.13
2018-04-13T15:28:23.246Z,0.60
2018-04-13T15:30:49.700Z,0.60
2018-04-13T15:33:16.117Z,0.60
2018-04-13T15:35:42.566Z,0.80
2018-04-13T15:38:09.001Z,0.70
2018-04-13T15:40:35.429Z,0.60
2018-04-13T15:43:01.875Z,0.70
2018-04-13T15:45:29.061Z,0.70
2018-04-13T15:47:55.462Z,0.60
2018-04-13T15:50:21.935Z,0.63
2018-04-13T15:52:48.329Z,0.80
2018-04-13T15:55:14.746Z,0.70
2018-04-13T15:57:41.201Z,0.70
2018-04-13T16:00:08.343Z,0.60
2018-04-13T16:02:35.489Z,0.70
2018-04-13T16:05:01.989Z,0.67
2018-04-13T16:07:28.417Z,0.70
2018-04-13T16:09:54.855Z,0.70
2018-04-13T16:12:21.292Z,0.70
2018-04-13T16:14:47.723Z,0.70
2018-04-13T16:17:14.180Z,1.10
2018-04-13T16:19:40.637Z,0.70
2018-04-13T16:22:07.784Z,0.60
2018-04-13T16:24:34.262Z,0.70
2018-04-13T16:27:00.839Z,0.60
2018-04-13T16:29:34.283Z,0.70
2018-04-13T16:32:00.756Z,0.80
2018-04-13T16:34:27.945Z,0.63
2018-04-13T16:36:54.353Z,0.70
2018-04-13T16:39:21.115Z,0.70
2018-04-13T16:41:47.647Z,0.70
2018-04-13T16:44:14.903Z,0.80
2018-04-13T16:46:41.443Z,0.70
2018-04-13T16:49:08.609Z,0.60
2018-04-13T16:51:35.049Z,0.70
2018-04-13T16:54:01.464Z,1.00
2018-04-13T16:56:34.580Z,0.60
2018-04-13T16:59:00.963Z,0.70
2018-04-13T17:01:27.488Z,0.70
2018-04-13T17:03:55.432Z,0.63
2018-04-13T17:06:21.885Z,0.67
2018-04-13T17:08:48.400Z,0.70
2018-04-13T17:11:14.806Z,0.60
2018-04-13T17:13:41.194Z,0.70
2018-04-13T17:16:09.029Z,0.83
2018-04-13T17:18:35.396Z,0.70
2018-04-13T17:21:01.787Z,0.70
2018-04-13T17:23:28.184Z,0.80
2018-04-13T17:25:54.563Z,0.70
2018-04-13T17:28:20.946Z,0.80
2018-04-13T17:30:47.311Z,0.60
2018-04-13T17:33:13.710Z,0.70
2018-04-13T17:35:40.386Z,0.70
2018-04-13T17:38:06.776Z,0.70
2018-04-13T17:40:35.120Z,0.70
2018-04-13T17:43:01.549Z,0.60
2018-04-13T17:45:28.728Z,0.70
2018-04-13T17:47:55.245Z,0.70
2018-04-13T17:50:21.621Z,0.70
2018-04-13T17:52:48.024Z,0.70
2018-04-13T17:55:15.123Z,0.70
2018-04-13T17:57:41.637Z,0.70
2018-04-13T18:00:08.179Z,0.70
2018-04-13T18:02:34.564Z,0.70
2018-04-13T18:05:00.941Z,0.70
2018-04-13T18:07:27.641Z,0.70
2018-04-13T18:09:54.182Z,0.90
2018-04-13T18:12:21.334Z,0.70
2018-04-13T18:14:48.438Z,0.60
2018-04-13T18:17:14.821Z,0.70
2018-04-13T18:19:42.045Z,0.70
2018-04-13T18:22:08.410Z,0.70
2018-04-13T18:24:35.626Z,0.70
2018-04-13T18:27:02.042Z,0.73
2018-04-13T18:29:28.391Z,0.70
2018-04-13T18:31:54.754Z,0.60
2018-04-13T18:34:21.886Z,1.23
2018-04-13T18:36:48.996Z,0.70
2018-04-13T18:39:15.372Z,0.97
2018-04-13T18:41:42.502Z,0.60
2018-04-13T18:44:08.869Z,2.40
2018-04-13T18:46:35.225Z,0.60
2018-04-13T18:49:01.638Z,0.70
2018-04-13T18:51:28.028Z,0.70
2018-04-13T18:53:54.425Z,0.70
2018-04-13T18:56:20.803Z,0.67
2018-04-13T18:58:47.189Z,0.70
2018-04-13T19:01:13.534Z,1.83
2018-04-13T19:03:39.978Z,2.17
2018-04-13T19:06:06.344Z,2.40
2018-04-13T19:08:33.469Z,0.70
2018-04-13T19:10:59.926Z,0.70
2018-04-13T19:13:27.133Z,0.70
2018-04-13T19:15:53.497Z,0.70
2018-04-13T19:18:19.903Z,0.67
2018-04-13T19:20:46.232Z,0.70
2018-04-13T19:23:12.589Z,1.33
2018-04-13T19:25:39.024Z,0.80
2018-04-13T19:28:05.385Z,0.70
2018-04-13T19:30:32.489Z,0.70
2018-04-13T19:32:59.139Z,0.70
2018-04-13T19:35:25.523Z,0.60
2018-04-13T19:37:51.877Z,0.60
2018-04-13T19:40:18.265Z,0.70
2018-04-13T19:42:45.434Z,0.80
2018-04-13T19:45:11.783Z,0.70
2018-04-13T19:47:38.156Z,0.70
2018-04-13T19:50:04.504Z,0.70
2018-04-13T19:52:31.605Z,0.63
2018-04-13T19:54:58.063Z,0.70
2018-04-13T19:57:24.442Z,0.70
2018-04-13T19:59:50.801Z,0.70
2018-04-13T20:02:17.204Z,0.80
2018-04-13T20:04:43.571Z,1.43
2018-04-13T20:07:09.977Z,1.53
2018-04-13T20:09:36.366Z,0.70
2018-04-13T20:12:02.809Z,0.67
2018-04-13T20:14:29.912Z,1.00
2018-04-13T20:16:56.295Z,0.70
2018-04-13T20:19:23.426Z,1.87
2018-04-13T20:21:49.786Z,0.70
2018-04-13T20:24:16.198Z,0.70
2018-04-13T20:26:43.427Z,0.60
2018-04-13T20:29:10.703Z,0.70
2018-04-13T20:31:37.851Z,0.73
2018-04-13T20:34:04.959Z,0.70
2018-04-13T20:36:31.351Z,0.90
2018-04-13T20:38:58.469Z,0.70
2018-04-13T20:41:25.571Z,0.70
2018-04-13T20:43:51.909Z,0.70
2018-04-13T20:46:18.295Z,0.60
2018-04-13T20:48:44.782Z,0.60
2018-04-13T20:51:11.128Z,1.93
2018-04-13T20:53:37.546Z,0.60
2018-04-13T20:56:03.962Z,0.70
2018-04-13T20:58:30.396Z,0.70
2018-04-13T21:00:56.847Z,0.63
2018-04-13T21:03:23.240Z,0.67
2018-04-13T21:05:50.395Z,0.70
2018-04-13T21:08:17.032Z,0.90
2018-04-13T21:10:43.421Z,1.33
2018-04-13T21:13:09.983Z,0.60
2018-04-13T21:15:37.161Z,0.70
2018-04-13T21:18:03.565Z,0.60
2018-04-13T21:20:29.943Z,0.90
2018-04-13T21:22:56.353Z,0.60
2018-04-13T21:25:22.766Z,0.70
2018-04-13T21:27:49.215Z,0.70
2018-04-13T21:30:15.708Z,0.60
2018-04-13T21:32:42.097Z,0.70
2018-04-13T21:35:08.577Z,0.70
2018-04-13T21:37:35.016Z,1.10
2018-04-13T21:40:01.409Z,1.10
2018-04-13T21:42:27.942Z,0.70
2018-04-13T21:44:54.365Z,1.73
2018-04-13T21:47:20.846Z,0.60
2018-04-13T21:49:47.286Z,0.70
2018-04-13T21:52:13.737Z,0.70
2018-04-13T21:54:40.320Z,0.70
2018-04-13T21:57:06.750Z,0.70
2018-04-13T21:59:33.257Z,0.60
2018-04-13T22:01:59.713Z,0.80
2018-04-13T22:04:26.180Z,0.73
2018-04-13T22:06:53.060Z,0.70
2018-04-13T22:09:19.566Z,0.60
2018-04-13T22:11:46.070Z,1.27
2018-04-13T22:14:24.745Z,0.73
2018-04-13T22:16:51.883Z,2.57
2018-04-13T22:19:19.005Z,0.70
2018-04-13T22:21:45.451Z,0.97
2018-04-13T22:24:11.850Z,0.70
2018-04-13T22:26:38.238Z,0.67
2018-04-13T22:29:05.411Z,0.70
2018-04-13T22:31:31.858Z,0.70
2018-04-13T22:33:58.251Z,0.60
2018-04-13T22:36:24.698Z,0.60
2018-04-13T22:38:51.096Z,0.70
2018-04-13T22:41:17.496Z,0.70
2018-04-13T22:43:43.934Z,1.73
2018-04-13T22:46:10.350Z,0.70
2018-04-13T22:48:36.759Z,0.70
2018-04-13T22:51:03.925Z,0.70
2018-04-13T22:53:30.339Z,1.43
2018-04-13T22:55:56.733Z,0.70
2018-04-13T22:58:23.140Z,0.70
2018-04-13T23:00:49.546Z,0.70
2018-04-13T23:03:16.038Z,0.70
2018-04-13T23:05:42.506Z,0.70
2018-04-13T23:08:08.926Z,1.00
2018-04-13T23:10:36.062Z,1.10
2018-04-13T23:13:03.278Z,0.70
2018-04-13T23:15:29.693Z,0.80
2018-04-13T23:17:56.123Z,1.23
2018-04-13T23:20:22.549Z,0.70
2018-04-13T23:22:48.965Z,0.70
2018-04-13T23:25:15.351Z,0.70
2018-04-13T23:27:41.784Z,0.70
2018-04-13T23:30:08.178Z,0.70
2018-04-13T23:32:34.598Z,0.67
2018-04-13T23:35:01.013Z,0.60
2018-04-13T23:37:28.249Z,0.70
2018-04-13T23:39:54.633Z,0.70
2018-04-13T23:42:21.101Z,0.60
2018-04-13T23:44:47.493Z,0.90
2018-04-13T23:47:13.889Z,0.87
2018-04-13T23:49:40.317Z,0.70
2018-04-13T23:52:07.467Z,0.60
2018-04-13T23:54:33.869Z,0.70
2018-04-13T23:57:00.284Z,0.70
2018-04-13T23:59:26.691Z,0.63
